createdAt,value
2018-01-30T00:09:02.383Z,2
2018-01-30T00:19:02.431Z,2
2018-01-30T00:29:02.717Z,2
2018-01-30T00:39:02.452Z,3
2018-01-30T00:49:02.672Z,2
2018-01-30T00:59:02.407Z,2
2018-01-30T01:09:02.530Z,4
2018-01-30T01:19:02.459Z,3
2018-01-30T01:29:02.460Z,3
2018-01-30T01:39:02.456Z,2
2018-01-30T01:49:02.461Z,2
2018-01-30T01:59:02.428Z,3
2018-01-30T02:09:02.476Z,2
2018-01-30T02:19:18.189Z,2
2018-01-30T02:29:02.543Z,2
2018-01-30T02:39:02.481Z,3
2018-01-30T02:49:02.502Z,3
2018-01-30T02:59:02.471Z,4
2018-01-30T03:09:02.551Z,2
2018-01-30T03:19:02.475Z,3
2018-01-30T03:29:02.579Z,4
2018-01-30T03:39:02.492Z,2
2018-01-30T03:49:02.488Z,3
2018-01-30T03:59:02.553Z,4
2018-01-30T04:09:02.517Z,3
2018-01-30T04:19:02.538Z,4
2018-01-30T04:29:02.571Z,6
2018-01-30T04:39:02.623Z,6
2018-01-30T04:49:02.588Z,6
2018-01-30T04:59:02.639Z,7
2018-01-30T05:09:02.565Z,5
2018-01-30T05:19:02.645Z,7
2018-01-30T05:29:02.592Z,6
2018-01-30T05:39:02.572Z,7
2018-01-30T05:49:02.615Z,8
2018-01-30T05:59:02.655Z,8
2018-01-30T06:09:02.658Z,7
2018-01-30T06:19:02.578Z,7
2018-01-30T06:29:02.688Z,9
2018-01-30T06:39:02.600Z,9
2018-01-30T06:49:02.732Z,9
2018-01-30T06:59:02.694Z,11
2018-01-30T07:09:02.651Z,10
2018-01-30T07:19:02.722Z,11
2018-01-30T07:29:02.691Z,13
2018-01-30T07:39:02.745Z,14
2018-01-30T07:49:02.662Z,17
2018-01-30T07:59:02.714Z,21
2018-01-30T08:09:02.744Z,21
2018-01-30T08:19:02.768Z,20
2018-01-30T08:29:02.813Z,22
2018-01-30T08:39:02.793Z,21
2018-01-30T08:49:02.809Z,25
2018-01-30T08:59:02.817Z,19
2018-01-30T09:09:02.838Z,20
2018-01-30T09:19:02.791Z,18
2018-01-30T09:29:02.799Z,19
2018-01-30T09:39:02.806Z,19
2018-01-30T09:49:04.798Z,19
2018-01-30T09:59:02.803Z,23
2018-01-30T10:09:02.862Z,15
2018-01-30T10:19:02.992Z,15
2018-01-30T10:29:19.044Z,15
2018-01-30T10:39:19.942Z,15
2018-01-30T10:49:02.874Z,16
2018-01-30T10:59:02.865Z,14
2018-01-30T11:09:02.945Z,15
2018-01-30T11:19:02.951Z,16
2018-01-30T11:29:02.948Z,19
2018-01-30T11:39:03.124Z,19
2018-01-30T11:49:02.855Z,17
2018-01-30T11:59:02.897Z,18
2018-01-30T12:09:02.941Z,19
2018-01-30T12:19:02.874Z,18
2018-01-30T12:29:02.930Z,18
2018-01-30T12:39:03.006Z,17
2018-01-30T12:49:02.977Z,15
2018-01-30T12:59:03.849Z,11
2018-01-30T13:09:02.915Z,10
2018-01-30T13:19:03.059Z,8
2018-01-30T13:29:03.003Z,7
2018-01-30T13:39:03.050Z,8
2018-01-30T13:49:02.981Z,7
2018-01-30T13:59:03.119Z,7
2018-01-30T14:09:03.009Z,7
2018-01-30T14:19:03.138Z,8
2018-01-30T14:29:03.093Z,8
2018-01-30T14:39:03.009Z,9
2018-01-30T14:49:03.106Z,10
2018-01-30T14:59:03.190Z,10
2018-01-30T15:09:03.173Z,10
2018-01-30T15:19:03.212Z,15
2018-01-30T15:29:03.208Z,13
2018-01-30T15:39:14.560Z,13
2018-01-30T15:49:03.160Z,14
2018-01-30T16:09:05.076Z,20
2018-01-30T16:19:03.211Z,19
2018-01-30T16:29:09.321Z,20
2018-01-30T16:39:33.109Z,22
2018-01-30T16:49:03.224Z,22
2018-01-30T16:59:03.154Z,21
2018-01-30T17:09:03.206Z,21
2018-01-30T17:19:03.285Z,22
2018-01-30T17:29:03.556Z,24
2018-01-30T17:39:03.824Z,25
2018-01-30T17:49:03.863Z,25
2018-01-30T17:59:03.722Z,25
2018-01-30T18:09:03.299Z,24
2018-01-30T18:19:03.376Z,29
2018-01-30T18:29:03.360Z,26
2018-01-30T18:39:03.272Z,26
2018-01-30T18:49:04.878Z,27
2018-01-30T18:59:03.393Z,26
2018-01-30T19:09:03.490Z,27
2018-01-30T19:19:03.470Z,29
2018-01-30T19:29:03.378Z,28
2018-01-30T19:39:04.913Z,29
2018-01-30T19:49:03.279Z,27
2018-01-30T19:59:03.328Z,28
2018-01-30T20:09:03.410Z,28
2018-01-30T20:19:04.080Z,27
2018-01-30T20:29:03.361Z,29
2018-01-30T20:39:03.511Z,30
2018-01-30T20:49:04.889Z,27
2018-01-30T20:59:03.576Z,26
2018-01-30T21:09:03.476Z,25
2018-01-30T21:19:03.486Z,25
2018-01-30T21:29:03.578Z,24
2018-01-30T21:39:03.907Z,23
2018-01-30T21:49:03.503Z,22
2018-01-30T21:59:03.507Z,22
2018-01-30T22:09:03.798Z,22
2018-01-30T22:19:03.511Z,20
2018-01-30T22:29:03.530Z,22
2018-01-30T22:39:03.785Z,20
